createdAt,value
2022-12-29T00:00:18.828Z,43.30
2022-12-29T00:02:46.974Z,41.70
2022-12-29T00:05:15.225Z,41.30
2022-12-29T00:07:44.701Z,40.35
2022-12-29T00:10:12.776Z,42.67
2022-12-29T00:12:58.296Z,40.97
2022-12-29T00:15:41.358Z,38.35
2022-12-29T00:18:09.674Z,38.42
2022-12-29T00:20:55.428Z,39.45
2022-12-29T00:23:42.303Z,39.25
2022-12-29T00:26:32.474Z,38.25
2022-12-29T00:29:18.798Z,37.65
2022-12-29T00:32:04.202Z,38.58
2022-12-29T00:34:49.721Z,38.08
2022-12-29T00:37:17.850Z,37.80
2022-12-29T00:40:05.230Z,37.80
2022-12-29T00:42:50.573Z,35.72
2022-12-29T00:45:18.707Z,36.83
2022-12-29T00:47:49.317Z,34.67
2022-12-29T00:50:16.577Z,35.15
2022-12-29T00:52:46.324Z,34.83
2022-12-29T00:55:15.922Z,35.78
2022-12-29T00:57:44.278Z,35.47
2022-12-29T01:00:13.788Z,36.35
2022-12-29T01:02:42.376Z,34.67
2022-12-29T01:05:10.891Z,33.83
2022-12-29T01:07:39.648Z,34.90
2022-12-29T01:10:13.431Z,32.67
2022-12-29T01:12:43.006Z,32.90
2022-12-29T01:15:12.675Z,32.38
2022-12-29T01:17:40.814Z,29.65
2022-12-29T01:20:09.615Z,32.72
2022-12-29T01:22:37.708Z,33.80
2022-12-29T01:25:06.499Z,32.95
2022-12-29T01:27:35.517Z,33.08
2022-12-29T01:30:05.757Z,32.65
2022-12-29T01:32:33.979Z,31.15
2022-12-29T01:35:02.059Z,31.75
2022-12-29T01:37:30.290Z,31.05
2022-12-29T01:39:58.485Z,32.40
2022-12-29T01:42:27.220Z,29.48
2022-12-29T01:44:56.586Z,32.10
2022-12-29T01:47:32.655Z,29.30
2022-12-29T01:50:03.570Z,29.42
2022-12-29T01:52:33.695Z,29.55
2022-12-29T01:55:03.404Z,29.10
2022-12-29T01:57:33.737Z,29.30
2022-12-29T02:00:04.465Z,31.33
2022-12-29T02:02:42.497Z,28.30
2022-12-29T02:05:13.628Z,28.45
2022-12-29T02:07:41.918Z,28.80
2022-12-29T02:10:12.012Z,28.38
2022-12-29T02:12:40.110Z,25.95
2022-12-29T02:15:09.453Z,26.40
2022-12-29T02:17:46.714Z,29.02
2022-12-29T02:20:49.348Z,25.85
2022-12-29T02:23:29.732Z,26.30
2022-12-29T02:26:10.253Z,27.52
2022-12-29T02:29:17.024Z,26.63
2022-12-29T02:31:48.273Z,26.50
2022-12-29T02:34:21.118Z,27.70
2022-12-29T02:36:51.987Z,24.73
2022-12-29T02:39:24.166Z,26.15
2022-12-29T02:41:58.768Z,23.52
2022-12-29T02:44:28.922Z,25.17
2022-12-29T02:47:00.744Z,24.80
2022-12-29T02:49:33.426Z,22.90
2022-12-29T02:52:04.402Z,23.55
2022-12-29T02:54:43.451Z,27.25
2022-12-29T02:57:16.880Z,21.85
2022-12-29T02:59:46.574Z,24.27
2022-12-29T03:02:28.923Z,24.58
2022-12-29T03:05:24.318Z,23.60
2022-12-29T03:07:56.616Z,24.63
2022-12-29T03:10:32.903Z,23.30
2022-12-29T03:13:22.478Z,22.05
2022-12-29T03:16:06.744Z,23.38
2022-12-29T03:18:41.501Z,23.20
2022-12-29T03:21:12.388Z,22.85
2022-12-29T03:23:40.795Z,22.65
2022-12-29T03:26:10.567Z,21.50
2022-12-29T03:28:41.008Z,22.80
2022-12-29T03:31:10.576Z,23.15
2022-12-29T03:33:42.268Z,24.90
2022-12-29T03:36:13.696Z,19.23
2022-12-29T03:38:44.662Z,23.10
2022-12-29T03:41:13.955Z,22.13
2022-12-29T03:43:42.139Z,20.85
2022-12-29T03:46:11.053Z,20.45
2022-12-29T03:48:42.369Z,19.75
2022-12-29T03:51:11.092Z,19.55
2022-12-29T03:53:39.171Z,19.95
2022-12-29T03:56:07.858Z,20.85
2022-12-29T03:58:35.948Z,18.48
2022-12-29T04:01:10.243Z,19.75
2022-12-29T04:03:40.275Z,21.25
2022-12-29T04:06:10.551Z,20.92
2022-12-29T04:08:48.420Z,20.05
2022-12-29T04:11:16.528Z,19.38
2022-12-29T04:13:47.092Z,18.25
2022-12-29T04:16:19.558Z,19.45
2022-12-29T04:18:47.802Z,20.73
2022-12-29T04:21:17.561Z,20.75
2022-12-29T04:23:46.596Z,18.25
2022-12-29T04:26:15.224Z,18.73
2022-12-29T04:28:59.823Z,18.20
2022-12-29T04:31:36.719Z,18.25
2022-12-29T04:34:04.921Z,17.63
2022-12-29T04:36:35.201Z,20.00
2022-12-29T04:39:03.332Z,17.33
2022-12-29T04:41:31.529Z,17.50
2022-12-29T04:43:59.762Z,17.42
2022-12-29T04:46:50.429Z,15.77
2022-12-29T04:49:41.540Z,17.95
2022-12-29T04:52:26.329Z,16.83
2022-12-29T04:54:54.780Z,17.80
2022-12-29T04:57:23.229Z,15.80
2022-12-29T04:59:55.668Z,16.98
2022-12-29T05:02:24.477Z,17.55
2022-12-29T05:04:54.559Z,16.33
2022-12-29T05:07:22.743Z,17.30
2022-12-29T05:09:52.215Z,17.60
2022-12-29T05:12:20.341Z,16.17
2022-12-29T05:14:56.244Z,17.30
2022-12-29T05:17:24.376Z,15.93
2022-12-29T05:19:52.479Z,15.75
2022-12-29T05:22:21.435Z,15.18
2022-12-29T05:24:49.577Z,15.68
2022-12-29T05:27:19.489Z,14.57
2022-12-29T05:30:00.938Z,14.60
2022-12-29T05:32:29.043Z,15.38
2022-12-29T05:34:57.243Z,15.25
2022-12-29T05:37:26.267Z,16.50
2022-12-29T05:39:54.372Z,16.48
2022-12-29T05:42:23.964Z,15.57
2022-12-29T05:44:57.411Z,13.82
2022-12-29T05:47:43.766Z,14.45
2022-12-29T05:50:25.885Z,14.48
2022-12-29T05:53:12.679Z,14.68
2022-12-29T05:55:46.775Z,14.45
2022-12-29T05:58:18.317Z,12.82
2022-12-29T06:00:46.427Z,13.07
2022-12-29T06:03:14.885Z,14.50
2022-12-29T06:05:43.528Z,14.02
2022-12-29T06:08:11.660Z,14.68
2022-12-29T06:10:39.757Z,14.13
2022-12-29T06:13:10.024Z,14.40
2022-12-29T06:15:43.189Z,13.40
2022-12-29T06:18:16.453Z,14.32
2022-12-29T06:20:47.980Z,14.15
2022-12-29T06:23:19.606Z,13.65
2022-12-29T06:25:49.352Z,13.70
2022-12-29T06:28:18.224Z,13.25
2022-12-29T06:30:48.987Z,12.88
2022-12-29T06:33:17.175Z,13.30
2022-12-29T06:35:46.811Z,14.35
2022-12-29T06:38:16.209Z,14.70
2022-12-29T06:40:46.048Z,12.73
2022-12-29T06:43:17.115Z,12.55
2022-12-29T06:46:07.012Z,13.10
2022-12-29T06:48:35.230Z,13.20
2022-12-29T06:51:03.413Z,16.05
2022-12-29T06:53:31.642Z,14.25
2022-12-29T06:55:59.784Z,17.15
2022-12-29T06:58:27.987Z,17.95
2022-12-29T07:00:56.076Z,16.65
2022-12-29T07:03:25.681Z,19.20
2022-12-29T07:05:55.243Z,14.40
2022-12-29T07:08:23.407Z,15.48
2022-12-29T07:10:51.479Z,20.40
2022-12-29T07:13:19.574Z,21.25
2022-12-29T07:15:47.715Z,19.15
2022-12-29T07:18:15.771Z,17.92
2022-12-29T07:20:45.288Z,23.13
2022-12-29T07:23:13.402Z,24.10
2022-12-29T07:25:42.325Z,26.40
2022-12-29T07:28:10.448Z,29.73
2022-12-29T07:30:39.240Z,23.65
2022-12-29T07:33:07.344Z,23.38
2022-12-29T07:35:35.818Z,28.40
2022-12-29T07:38:05.339Z,36.72
2022-12-29T07:40:33.642Z,41.28
2022-12-29T07:43:01.688Z,33.90
2022-12-29T07:45:36.384Z,39.25
2022-12-29T07:48:10.476Z,35.55
2022-12-29T07:50:38.663Z,35.97
2022-12-29T07:53:08.087Z,33.13
2022-12-29T07:55:36.193Z,35.50
2022-12-29T07:58:04.275Z,42.97
2022-12-29T08:00:32.405Z,37.75
2022-12-29T08:03:00.501Z,55.53
2022-12-29T08:05:28.655Z,68.35
2022-12-29T08:07:56.777Z,66.72
2022-12-29T08:10:26.361Z,43.42
2022-12-29T08:12:54.459Z,46.05
2022-12-29T08:15:27.068Z,48.63
2022-12-29T08:17:58.780Z,50.95
2022-12-29T08:20:26.875Z,50.95
2022-12-29T08:22:55.011Z,60.80
2022-12-29T08:25:23.113Z,58.55
2022-12-29T08:27:53.732Z,56.90
2022-12-29T08:30:21.813Z,55.63
2022-12-29T08:32:50.042Z,54.03
2022-12-29T08:35:18.316Z,55.67
2022-12-29T08:37:46.458Z,55.47
2022-12-29T08:40:14.985Z,50.33
2022-12-29T08:42:43.099Z,53.67
2022-12-29T08:45:13.000Z,46.97
2022-12-29T08:47:41.124Z,52.60
2022-12-29T08:50:09.810Z,47.88
2022-12-29T08:52:37.925Z,48.00
2022-12-29T08:55:06.824Z,50.90
2022-12-29T08:57:35.124Z,44.33
2022-12-29T09:00:08.855Z,44.58
2022-12-29T09:02:38.558Z,44.67
2022-12-29T09:05:07.807Z,42.72
2022-12-29T09:07:35.911Z,41.67
2022-12-29T09:10:04.500Z,41.00
2022-12-29T09:12:36.393Z,41.42
2022-12-29T09:15:05.655Z,41.28
2022-12-29T09:17:46.379Z,42.55
2022-12-29T09:20:16.632Z,38.35
2022-12-29T09:22:44.940Z,38.28
2022-12-29T09:25:13.222Z,38.55
2022-12-29T09:27:41.478Z,44.28
2022-12-29T09:30:11.187Z,45.80
2022-12-29T09:32:44.600Z,52.35
2022-12-29T09:35:13.396Z,55.03
2022-12-29T09:37:42.930Z,60.33
2022-12-29T09:40:19.199Z,59.13
2022-12-29T09:43:00.426Z,63.22
2022-12-29T09:45:30.104Z,65.30
2022-12-29T09:47:58.270Z,60.42
2022-12-29T09:50:28.211Z,67.65
2022-12-29T09:53:01.028Z,61.38
2022-12-29T09:55:33.879Z,70.93
2022-12-29T09:58:03.609Z,66.35
2022-12-29T10:00:38.404Z,68.90
2022-12-29T10:03:08.580Z,69.45
2022-12-29T10:05:39.653Z,71.95
2022-12-29T10:08:21.007Z,72.68
2022-12-29T10:10:53.062Z,73.63
2022-12-29T10:13:32.178Z,67.50
2022-12-29T10:16:04.827Z,67.97
2022-12-29T10:18:46.900Z,68.70
2022-12-29T10:21:19.725Z,68.05
2022-12-29T10:23:51.097Z,68.90
2022-12-29T10:26:21.045Z,75.95
2022-12-29T10:28:50.356Z,76.43
2022-12-29T10:31:21.106Z,84.18
2022-12-29T10:33:52.238Z,89.18
2022-12-29T10:36:21.560Z,83.30
2022-12-29T10:39:07.486Z,93.10
2022-12-29T10:41:38.884Z,79.03
2022-12-29T10:44:07.072Z,80.43
2022-12-29T10:46:36.876Z,74.07
2022-12-29T10:49:05.374Z,81.03
2022-12-29T10:51:35.461Z,75.13
2022-12-29T10:54:07.119Z,74.55
2022-12-29T10:56:42.783Z,73.43
2022-12-29T10:59:14.891Z,75.38
2022-12-29T11:01:45.400Z,79.40
2022-12-29T11:04:24.742Z,76.70
2022-12-29T11:06:52.826Z,73.28
2022-12-29T11:09:36.625Z,75.53
2022-12-29T11:12:24.249Z,77.82
2022-12-29T11:15:03.723Z,80.95
2022-12-29T11:17:32.000Z,84.75
2022-12-29T11:20:00.241Z,85.13
2022-12-29T11:22:30.043Z,80.82
2022-12-29T11:25:12.407Z,79.78
2022-12-29T11:27:43.203Z,74.47
2022-12-29T11:30:24.159Z,76.97
2022-12-29T11:32:53.280Z,78.45
2022-12-29T11:35:33.121Z,73.63
2022-12-29T11:38:01.755Z,77.57
2022-12-29T11:40:31.384Z,79.97
2022-12-29T11:43:00.700Z,78.97
2022-12-29T11:45:30.068Z,79.10
2022-12-29T11:47:59.733Z,81.97
2022-12-29T11:50:30.449Z,82.00
2022-12-29T11:53:00.813Z,87.43
2022-12-29T11:55:29.157Z,84.63
2022-12-29T11:58:00.026Z,87.10
2022-12-29T12:00:28.414Z,84.43
2022-12-29T12:02:58.897Z,86.07
2022-12-29T12:05:32.028Z,86.05
2022-12-29T12:08:04.000Z,84.55
2022-12-29T12:10:33.823Z,88.57
2022-12-29T12:13:08.006Z,96.40
2022-12-29T12:15:45.156Z,85.75
2022-12-29T12:18:16.761Z,79.05
2022-12-29T12:20:47.643Z,80.70
2022-12-29T12:23:29.685Z,85.15
2022-12-29T12:26:00.255Z,75.38
2022-12-29T12:28:36.999Z,77.65
2022-12-29T12:31:06.701Z,78.00
2022-12-29T12:33:36.432Z,87.53
2022-12-29T12:36:29.294Z,64.70
2022-12-29T12:38:58.941Z,63.03
2022-12-29T12:41:31.987Z,55.78
2022-12-29T12:44:03.896Z,55.85
2022-12-29T12:46:44.888Z,62.75
2022-12-29T12:49:51.967Z,59.08
2022-12-29T12:52:24.805Z,59.92
2022-12-29T12:55:07.651Z,66.53
2022-12-29T12:57:42.782Z,71.65
2022-12-29T13:00:13.501Z,76.82
2022-12-29T13:02:47.399Z,100.00
2022-12-29T13:05:39.578Z,96.07
2022-12-29T13:08:41.383Z,93.20
2022-12-29T13:11:13.983Z,92.32
2022-12-29T13:13:58.258Z,87.35
2022-12-29T13:16:31.347Z,87.47
2022-12-29T13:19:01.413Z,82.38
2022-12-29T13:21:39.455Z,86.38
2022-12-29T13:24:13.051Z,89.72
2022-12-29T13:26:44.400Z,82.20
2022-12-29T13:29:17.479Z,83.90
2022-12-29T13:31:50.507Z,80.63
2022-12-29T13:34:21.946Z,82.88
2022-12-29T13:36:51.759Z,80.20
2022-12-29T13:39:21.835Z,78.63
2022-12-29T13:41:51.454Z,82.88
2022-12-29T13:44:22.582Z,82.00
2022-12-29T13:46:52.243Z,80.55
2022-12-29T13:49:20.983Z,80.20
2022-12-29T13:51:51.248Z,79.72
2022-12-29T13:54:31.752Z,75.75
2022-12-29T13:57:05.054Z,77.60
2022-12-29T13:59:41.835Z,76.10
2022-12-29T14:02:17.557Z,79.32
2022-12-29T14:04:58.166Z,94.28
2022-12-29T14:07:26.275Z,82.57
2022-12-29T14:09:54.807Z,86.20
2022-12-29T14:12:38.184Z,80.90
2022-12-29T14:15:22.417Z,80.18
2022-12-29T14:18:05.955Z,77.78
2022-12-29T14:20:34.207Z,92.07
2022-12-29T14:23:03.202Z,79.18
2022-12-29T14:25:54.521Z,76.82
2022-12-29T14:28:25.182Z,76.70
2022-12-29T14:30:54.461Z,80.15
2022-12-29T14:33:24.726Z,80.57
2022-12-29T14:35:53.512Z,81.97
2022-12-29T14:38:26.810Z,80.03
2022-12-29T14:40:55.152Z,77.88
2022-12-29T14:43:26.109Z,79.68
2022-12-29T14:46:00.056Z,82.55
2022-12-29T14:48:36.116Z,80.68
2022-12-29T14:51:04.208Z,82.45
2022-12-29T14:53:44.374Z,83.50
2022-12-29T14:56:12.717Z,84.20
2022-12-29T14:58:45.952Z,80.85
2022-12-29T15:01:27.306Z,81.13
2022-12-29T15:03:59.681Z,84.45
2022-12-29T15:06:30.122Z,83.15
2022-12-29T15:09:02.703Z,80.90
2022-12-29T15:11:43.502Z,82.70
2022-12-29T15:14:33.580Z,83.28
2022-12-29T15:17:01.801Z,81.60
2022-12-29T15:19:31.351Z,77.05
2022-12-29T15:21:59.507Z,87.85
2022-12-29T15:24:27.600Z,86.80
2022-12-29T15:26:56.065Z,81.65
2022-12-29T15:29:34.961Z,75.63
2022-12-29T15:32:05.454Z,69.90
2022-12-29T15:34:35.012Z,72.82
2022-12-29T15:37:07.954Z,67.80
2022-12-29T15:39:36.121Z,71.55
2022-12-29T15:42:06.327Z,67.43
2022-12-29T15:44:36.715Z,69.55
2022-12-29T15:47:05.375Z,71.43
2022-12-29T15:49:34.803Z,69.22
2022-12-29T15:52:02.912Z,72.05
2022-12-29T15:54:31.775Z,70.93
2022-12-29T15:56:59.994Z,84.60
2022-12-29T15:59:29.078Z,95.03
2022-12-29T16:01:57.961Z,89.03
2022-12-29T16:04:26.461Z,81.22
2022-12-29T16:06:59.729Z,81.78
2022-12-29T16:09:32.190Z,82.30
2022-12-29T16:12:01.119Z,76.70
2022-12-29T16:14:31.986Z,81.13
2022-12-29T16:17:01.258Z,78.70
2022-12-29T16:19:30.916Z,76.63
2022-12-29T16:22:01.014Z,76.80
2022-12-29T16:24:34.118Z,78.88
2022-12-29T16:27:04.555Z,323.80
2022-12-29T16:29:32.858Z,137.77
2022-12-29T16:32:04.301Z,132.88
2022-12-29T16:34:33.321Z,126.82
2022-12-29T16:37:03.819Z,123.00
2022-12-29T16:39:40.379Z,135.82
2022-12-29T16:42:50.941Z,144.05
2022-12-29T16:46:08.270Z,160.30
2022-12-29T16:48:37.545Z,155.02
2022-12-29T16:51:07.266Z,124.07
2022-12-29T16:53:39.087Z,125.53
2022-12-29T16:56:10.223Z,124.95
2022-12-29T16:58:38.309Z,117.28
2022-12-29T17:01:07.392Z,112.20
2022-12-29T17:03:36.534Z,113.32
2022-12-29T17:06:05.014Z,112.10
2022-12-29T17:08:42.203Z,105.32
2022-12-29T17:11:41.529Z,100.63
2022-12-29T17:14:32.737Z,96.20
2022-12-29T17:17:02.097Z,86.43
2022-12-29T17:19:32.046Z,88.70
2022-12-29T17:22:00.179Z,90.35
2022-12-29T17:24:29.986Z,83.32
2022-12-29T17:26:59.239Z,83.68
2022-12-29T17:29:32.003Z,81.82
2022-12-29T17:32:00.535Z,83.35
2022-12-29T17:34:28.643Z,75.30
2022-12-29T17:36:56.849Z,74.90
2022-12-29T17:39:24.936Z,70.60
2022-12-29T17:41:54.501Z,74.95
2022-12-29T17:44:22.730Z,76.55
2022-12-29T17:46:51.168Z,69.90
2022-12-29T17:49:19.544Z,66.18
2022-12-29T17:51:47.764Z,72.88
2022-12-29T17:54:20.930Z,67.47
2022-12-29T17:56:49.080Z,67.00
2022-12-29T17:59:18.675Z,65.68
2022-12-29T18:01:47.414Z,62.08
2022-12-29T18:04:16.585Z,62.08
2022-12-29T18:06:45.127Z,58.67
2022-12-29T18:09:13.186Z,59.33
2022-12-29T18:11:41.606Z,56.25
2022-12-29T18:14:12.784Z,56.30
2022-12-29T18:16:42.365Z,55.60
2022-12-29T18:19:10.492Z,56.13
2022-12-29T18:21:38.622Z,52.15
2022-12-29T18:24:07.396Z,54.97
2022-12-29T18:26:35.789Z,52.22
2022-12-29T18:29:03.977Z,51.67
2022-12-29T18:31:32.852Z,49.63
2022-12-29T18:34:03.267Z,49.92
2022-12-29T18:36:31.469Z,47.72
2022-12-29T18:38:59.539Z,50.38
2022-12-29T18:41:29.727Z,48.78
2022-12-29T18:43:58.080Z,48.17
2022-12-29T18:46:26.211Z,42.67
2022-12-29T18:48:54.627Z,46.45
2022-12-29T18:51:24.852Z,43.33
2022-12-29T18:53:54.395Z,43.63
2022-12-29T18:56:23.267Z,48.95
2022-12-29T18:58:51.595Z,43.88
2022-12-29T19:01:21.656Z,40.75
2022-12-29T19:03:50.135Z,41.50
2022-12-29T19:06:18.236Z,41.70
2022-12-29T19:08:47.754Z,41.03
2022-12-29T19:11:15.842Z,39.58
2022-12-29T19:13:44.051Z,40.42
2022-12-29T19:16:13.657Z,38.85
2022-12-29T19:18:44.041Z,39.58
2022-12-29T19:21:13.776Z,38.75
2022-12-29T19:23:41.899Z,36.60
2022-12-29T19:26:29.995Z,36.42
2022-12-29T19:28:58.269Z,36.53
2022-12-29T19:31:26.445Z,36.53
2022-12-29T19:33:54.654Z,38.03
2022-12-29T19:36:22.858Z,35.28
2022-12-29T19:38:51.045Z,37.90
2022-12-29T19:41:20.819Z,36.10
2022-12-29T19:43:48.848Z,34.05
2022-12-29T19:46:17.797Z,34.08
2022-12-29T19:48:45.897Z,33.17
2022-12-29T19:51:15.595Z,33.13
2022-12-29T19:53:43.991Z,33.05
2022-12-29T19:56:12.183Z,32.20
2022-12-29T19:58:46.652Z,32.60
2022-12-29T20:01:16.613Z,30.85
2022-12-29T20:03:44.885Z,31.88
2022-12-29T20:06:13.118Z,32.20
2022-12-29T20:08:41.284Z,32.33
2022-12-29T20:11:10.431Z,32.17
2022-12-29T20:13:38.587Z,31.85
2022-12-29T20:16:09.250Z,29.88
2022-12-29T20:18:37.490Z,32.15
2022-12-29T20:21:05.854Z,28.15
2022-12-29T20:23:34.056Z,29.23
2022-12-29T20:26:02.475Z,28.75
2022-12-29T20:28:30.964Z,28.45
2022-12-29T20:31:00.184Z,27.00
2022-12-29T20:33:29.752Z,29.15
2022-12-29T20:36:05.858Z,29.33
2022-12-29T20:38:34.002Z,28.00
2022-12-29T20:41:02.147Z,32.72
2022-12-29T20:43:30.274Z,38.55
2022-12-29T20:45:58.390Z,35.92
2022-12-29T20:48:26.543Z,36.47
2022-12-29T20:50:59.393Z,35.65
2022-12-29T20:53:27.956Z,33.45
2022-12-29T20:55:56.064Z,37.88
2022-12-29T20:58:24.962Z,34.88
2022-12-29T21:00:53.566Z,35.33
2022-12-29T21:03:21.777Z,36.55
2022-12-29T21:05:49.892Z,34.10
2022-12-29T21:08:21.142Z,33.75
2022-12-29T21:10:49.318Z,32.20
2022-12-29T21:13:17.675Z,33.97
2022-12-29T21:15:45.884Z,32.97
2022-12-29T21:18:14.332Z,30.27
2022-12-29T21:20:42.541Z,30.95
2022-12-29T21:23:10.863Z,31.17
2022-12-29T21:25:44.447Z,30.20
2022-12-29T21:28:13.295Z,30.45
2022-12-29T21:30:41.579Z,32.60
2022-12-29T21:33:09.867Z,29.25
2022-12-29T21:35:38.539Z,30.33
2022-12-29T21:38:06.759Z,29.38
2022-12-29T21:40:35.444Z,30.27
2022-12-29T21:43:05.002Z,28.20
2022-12-29T21:45:32.544Z,30.90
2022-12-29T21:48:18.830Z,26.30
2022-12-29T21:51:05.635Z,29.15
2022-12-29T21:53:40.897Z,26.85
2022-12-29T21:56:10.116Z,27.33
2022-12-29T21:58:57.880Z,27.17
2022-12-29T22:01:44.162Z,25.88
2022-12-29T22:04:30.897Z,25.38
2022-12-29T22:07:16.240Z,30.92
2022-12-29T22:10:01.587Z,26.40
2022-12-29T22:12:48.214Z,24.00
2022-12-29T22:15:17.784Z,24.73
2022-12-29T22:17:48.859Z,24.50
2022-12-29T22:20:17.489Z,23.70
2022-12-29T22:22:45.575Z,25.02
2022-12-29T22:25:13.701Z,25.23
2022-12-29T22:27:41.855Z,27.15
2022-12-29T22:30:10.392Z,23.33
2022-12-29T22:32:39.835Z,23.55
2022-12-29T22:35:08.571Z,22.70
2022-12-29T22:37:37.117Z,22.17
2022-12-29T22:40:05.887Z,24.02
2022-12-29T22:42:34.083Z,21.83
2022-12-29T22:45:02.178Z,22.83
2022-12-29T22:47:30.280Z,22.08
2022-12-29T22:50:00.456Z,21.45
2022-12-29T22:52:28.562Z,22.38
2022-12-29T22:54:59.226Z,24.52
2022-12-29T22:57:32.225Z,21.95
2022-12-29T23:00:00.248Z,20.63
2022-12-29T23:02:28.878Z,22.98
2022-12-29T23:05:05.226Z,20.13
2022-12-29T23:07:35.557Z,21.83
2022-12-29T23:10:03.918Z,20.20
2022-12-29T23:12:32.254Z,20.15
2022-12-29T23:15:00.332Z,20.13
2022-12-29T23:17:28.420Z,18.75
2022-12-29T23:19:56.486Z,18.30
2022-12-29T23:22:25.120Z,21.38
2022-12-29T23:24:54.663Z,19.27
2022-12-29T23:27:22.787Z,17.77
2022-12-29T23:29:50.850Z,20.35
2022-12-29T23:32:18.988Z,18.00
2022-12-29T23:34:47.065Z,19.67
2022-12-29T23:37:15.215Z,17.92
2022-12-29T23:39:43.311Z,17.63
2022-12-29T23:42:12.923Z,18.75
2022-12-29T23:44:41.017Z,18.35
2022-12-29T23:47:09.114Z,19.10
2022-12-29T23:49:37.178Z,18.70
2022-12-29T23:52:05.320Z,16.25
2022-12-29T23:54:33.485Z,16.15
2022-12-29T23:57:01.676Z,15.82
2022-12-29T23:59:31.230Z,15.77
